sensor_id;sensor_type;location;lat;lon;timestamp;temperature;humidity
44763;DHT22;30483;49.576;6.036;2024-02-15T04:31:10;14.80;99.90
44763;DHT22;30483;49.576;6.036;2024-02-15T04:33:37;14.80;99.90
44763;DHT22;30483;49.576;6.036;2024-02-15T04:36:05;14.80;99.90
44763;DHT22;30483;49.576;6.036;2024-02-15T04:38:32;14.70;99.90
44763;DHT22;30483;49.576;6.036;2024-02-15T04:41:03;14.80;99.90
44763;DHT22;30483;49.576;6.036;2024-02-15T04:43:30;14.70;99.90
44763;DHT22;30483;49.576;6.036;2024-02-15T04:45:59;14.70;99.90
44763;DHT22;30483;49.576;6.036;2024-02-15T04:48:25;14.70;99.90
44763;DHT22;30483;49.576;6.036;2024-02-15T04:50:52;14.80;99.90
44763;DHT22;30483;49.576;6.036;2024-02-15T04:53:20;14.70;99.90
44763;DHT22;30483;49.576;6.036;2024-02-15T04:55:46;14.70;99.90
44763;DHT22;30483;49.576;6.036;2024-02-15T04:58:12;14.70;99.90
44763;DHT22;30483;49.576;6.036;2024-02-15T05:00:38;14.80;99.90
44763;DHT22;30483;49.576;6.036;2024-02-15T05:03:12;14.70;99.90
44763;DHT22;30483;49.576;6.036;2024-02-15T05:05:37;14.70;99.90
44763;DHT22;30483;49.576;6.036;2024-02-15T05:08:04;14.80;99.90
44763;DHT22;30483;49.576;6.036;2024-02-15T05:10:33;14.80;99.90
44763;DHT22;30483;49.576;6.036;2024-02-15T05:12:59;14.70;99.90
44763;DHT22;30483;49.576;6.036;2024-02-15T05:15:26;14.70;99.90
44763;DHT22;30483;49.576;6.036;2024-02-15T05:17:52;14.80;99.90
44763;DHT22;30483;49.576;6.036;2024-02-15T05:20:19;14.80;99.90
44763;DHT22;30483;49.576;6.036;2024-02-15T05:22:46;14.80;99.90
44763;DHT22;30483;49.576;6.036;2024-02-15T05:25:12;14.80;99.90
44763;DHT22;30483;49.576;6.036;2024-02-15T05:27:38;14.80;99.90
44763;DHT22;30483;49.576;6.036;2024-02-15T05:30:04;14.80;99.90
44763;DHT22;30483;49.576;6.036;2024-02-15T05:32:34;14.80;99.90
44763;DHT22;30483;49.576;6.036;2024-02-15T05:35:08;14.80;99.90
44763;DHT22;30483;49.576;6.036;2024-02-15T05:37:34;14.80;99.90
44763;DHT22;30483;49.576;6.036;2024-02-15T05:40:00;14.80;99.90
44763;DHT22;30483;49.576;6.036;2024-02-15T05:42:25;14.80;99.90
44763;DHT22;30483;49.576;6.036;2024-02-15T05:44:52;14.80;99.90
44763;DHT22;30483;49.576;6.036;2024-02-15T05:47:18;14.80;99.90
44763;DHT22;30483;49.576;6.036;2024-02-15T05:49:43;14.90;99.90
44763;DHT22;30483;49.576;6.036;2024-02-15T05:52:11;14.90;99.90
44763;DHT22;30483;49.576;6.036;2024-02-15T05:54:36;14.80;99.90
44763;DHT22;30483;49.576;6.036;2024-02-15T05:57:02;14.80;99.90
44763;DHT22;30483;49.576;6.036;2024-02-15T05:59:28;14.90;99.90
44763;DHT22;30483;49.576;6.036;2024-02-15T06:01:54;14.80;99.90
44763;DHT22;30483;49.576;6.036;2024-02-15T06:04:19;14.90;99.90
44763;DHT22;30483;49.576;6.036;2024-02-15T06:06:45;14.80;99.90
44763;DHT22;30483;49.576;6.036;2024-02-15T06:09:14;14.90;99.90
44763;DHT22;30483;49.576;6.036;2024-02-15T06:11:39;14.80;99.90
44763;DHT22;30483;49.576;6.036;2024-02-15T06:14:05;14.90;99.90
44763;DHT22;30483;49.576;6.036;2024-02-15T06:16:31;14.90;99.90
44763;DHT22;30483;49.576;6.036;2024-02-15T06:18:57;14.90;99.90
44763;DHT22;30483;49.576;6.036;2024-02-15T06:21:23;14.90;99.90
44763;DHT22;30483;49.576;6.036;2024-02-15T06:23:49;14.90;99.90
44763;DHT22;30483;49.576;6.036;2024-02-15T06:26:16;14.90;99.90
44763;DHT22;30483;49.576;6.036;2024-02-15T06:28:42;14.90;99.90
44763;DHT22;30483;49.576;6.036;2024-02-15T06:31:26;14.90;99.90
44763;DHT22;30483;49.576;6.036;2024-02-15T06:34:10;14.90;99.90
44763;DHT22;30483;49.576;6.036;2024-02-15T06:36:56;14.90;99.90
44763;DHT22;30483;49.576;6.036;2024-02-15T06:39:44;14.90;99.90
44763;DHT22;30483;49.576;6.036;2024-02-15T06:42:14;14.90;99.90
44763;DHT22;30483;49.576;6.036;2024-02-15T06:44:45;14.90;99.90
44763;DHT22;30483;49.576;6.036;2024-02-15T06:47:12;14.90;99.90
44763;DHT22;30483;49.576;6.036;2024-02-15T06:49:41;14.90;99.90
44763;DHT22;30483;49.576;6.036;2024-02-15T06:52:07;14.90;99.90
44763;DHT22;30483;49.576;6.036;2024-02-15T06:54:34;14.90;99.90
44763;DHT22;30483;49.576;6.036;2024-02-15T06:57:04;14.90;99.90
44763;DHT22;30483;49.576;6.036;2024-02-15T06:59:30;14.90;99.90
44763;DHT22;30483;49.576;6.036;2024-02-15T07:02:05;14.90;99.90
44763;DHT22;30483;49.576;6.036;2024-02-15T07:04:33;15.00;99.90
44763;DHT22;30483;49.576;6.036;2024-02-15T07:07:01;15.00;99.90
44763;DHT22;30483;49.576;6.036;2024-02-15T07:09:28;14.90;99.90
44763;DHT22;30483;49.576;6.036;2024-02-15T07:11:54;14.90;99.90
44763;DHT22;30483;49.576;6.036;2024-02-15T07:14:25;14.90;99.90
44763;DHT22;30483;49.576;6.036;2024-02-15T07:16:53;14.90;99.90
44763;DHT22;30483;49.576;6.036;2024-02-15T07:19:22;14.90;99.90
44763;DHT22;30483;49.576;6.036;2024-02-15T07:21:47;14.90;99.90
44763;DHT22;30483;49.576;6.036;2024-02-15T07:24:13;14.90;99.90
44763;DHT22;30483;49.576;6.036;2024-02-15T07:26:39;14.90;99.90
44763;DHT22;30483;49.576;6.036;2024-02-15T07:29:04;14.80;99.90
44763;DHT22;30483;49.576;6.036;2024-02-15T07:31:33;14.90;99.90
44763;DHT22;30483;49.576;6.036;2024-02-15T07:34:02;14.90;99.90
44763;DHT22;30483;49.576;6.036;2024-02-15T07:36:36;14.90;99.90
44763;DHT22;30483;49.576;6.036;2024-02-15T07:39:03;14.80;99.90
44763;DHT22;30483;49.576;6.036;2024-02-15T07:41:29;14.90;99.90
44763;DHT22;30483;49.576;6.036;2024-02-15T07:43:56;14.90;99.90
44763;DHT22;30483;49.576;6.036;2024-02-15T07:46:23;14.90;99.90
44763;DHT22;30483;49.576;6.036;2024-02-15T07:48:49;14.90;99.90
44763;DHT22;30483;49.576;6.036;2024-02-15T07:51:16;14.90;99.90
44763;DHT22;30483;49.576;6.036;2024-02-15T07:53:43;14.90;99.90
44763;DHT22;30483;49.576;6.036;2024-02-15T07:56:10;14.90;99.90
44763;DHT22;30483;49.576;6.036;2024-02-15T07:58:39;14.90;99.90
44763;DHT22;30483;49.576;6.036;2024-02-15T08:01:06;14.90;99.90
44763;DHT22;30483;49.576;6.036;2024-02-15T08:03:32;14.90;99.90
44763;DHT22;30483;49.576;6.036;2024-02-15T08:05:58;14.90;99.90
44763;DHT22;30483;49.576;6.036;2024-02-15T08:08:33;14.90;99.90
44763;DHT22;30483;49.576;6.036;2024-02-15T08:11:01;15.00;99.90
44763;DHT22;30483;49.576;6.036;2024-02-15T08:13:27;14.90;99.90
44763;DHT22;30483;49.576;6.036;2024-02-15T08:15:55;14.90;99.90
44763;DHT22;30483;49.576;6.036;2024-02-15T08:18:20;14.90;99.90
44763;DHT22;30483;49.576;6.036;2024-02-15T08:20:46;14.90;99.90
44763;DHT22;30483;49.576;6.036;2024-02-15T08:23:13;15.00;99.90
44763;DHT22;30483;49.576;6.036;2024-02-15T08:25:38;15.00;99.90
44763;DHT22;30483;49.576;6.036;2024-02-15T08:28:06;14.90;99.90
44763;DHT22;30483;49.576;6.036;2024-02-15T08:30:32;14.90;99.90
44763;DHT22;30483;49.576;6.036;2024-02-15T08:32:58;14.90;99.90
44763;DHT22;30483;49.576;6.036;2024-02-15T08:35:24;15.00;99.90
44763;DHT22;30483;49.576;6.036;2024-02-15T08:37:49;15.00;99.90
44763;DHT22;30483;49.576;6.036;2024-02-15T08:40:17;14.90;99.90
44763;DHT22;30483;49.576;6.036;2024-02-15T08:42:45;14.90;99.90
44763;DHT22;30483;49.576;6.036;2024-02-15T08:45:11;14.90;99.90
44763;DHT22;30483;49.576;6.036;2024-02-15T08:47:42;14.80;99.90
44763;DHT22;30483;49.576;6.036;2024-02-15T08:50:10;14.80;99.90
44763;DHT22;30483;49.576;6.036;2024-02-15T08:52:40;14.80;99.90
44763;DHT22;30483;49.576;6.036;2024-02-15T08:55:06;14.80;99.90
44763;DHT22;30483;49.576;6.036;2024-02-15T08:57:33;14.80;99.90
44763;DHT22;30483;49.576;6.036;2024-02-15T08:59:59;14.70;99.90
44763;DHT22;30483;49.576;6.036;2024-02-15T09:02:24;14.60;99.90
44763;DHT22;30483;49.576;6.036;2024-02-15T09:04:50;14.70;99.90
44763;DHT22;30483;49.576;6.036;2024-02-15T09:07:16;14.70;99.90
44763;DHT22;30483;49.576;6.036;2024-02-15T09:09:41;14.70;99.90
44763;DHT22;30483;49.576;6.036;2024-02-15T09:12:07;14.60;99.90
44763;DHT22;30483;49.576;6.036;2024-02-15T09:14:33;14.60;99.90
44763;DHT22;30483;49.576;6.036;2024-02-15T09:17:00;14.70;99.90
44763;DHT22;30483;49.576;6.036;2024-02-15T09:19:26;14.70;99.90
44763;DHT22;30483;49.576;6.036;2024-02-15T09:21:52;14.80;99.90
44763;DHT22;30483;49.576;6.036;2024-02-15T09:24:19;14.80;99.90
44763;DHT22;30483;49.576;6.036;2024-02-15T09:26:44;14.70;99.90
44763;DHT22;30483;49.576;6.036;2024-02-15T09:29:10;14.70;99.90
44763;DHT22;30483;49.576;6.036;2024-02-15T09:31:36;14.70;99.90
44763;DHT22;30483;49.576;6.036;2024-02-15T09:34:02;14.70;99.90
44763;DHT22;30483;49.576;6.036;2024-02-15T09:36:35;14.70;99.90
44763;DHT22;30483;49.576;6.036;2024-02-15T09:39:03;14.70;99.90
44763;DHT22;30483;49.576;6.036;2024-02-15T09:41:29;14.70;99.90
44763;DHT22;30483;49.576;6.036;2024-02-15T09:43:54;14.70;99.90
44763;DHT22;30483;49.576;6.036;2024-02-15T09:46:20;14.70;99.90
44763;DHT22;30483;49.576;6.036;2024-02-15T09:48:51;14.60;99.90
44763;DHT22;30483;49.576;6.036;2024-02-15T09:51:20;14.50;99.90
44763;DHT22;30483;49.576;6.036;2024-02-15T09:53:47;14.50;99.90
44763;DHT22;30483;49.576;6.036;2024-02-15T09:56:14;14.50;99.90
44763;DHT22;30483;49.576;6.036;2024-02-15T09:58:41;14.60;99.90
44763;DHT22;30483;49.576;6.036;2024-02-15T10:01:08;14.60;99.90
44763;DHT22;30483;49.576;6.036;2024-02-15T10:03:37;14.60;99.90
44763;DHT22;30483;49.576;6.036;2024-02-15T10:06:05;14.70;99.90
44763;DHT22;30483;49.576;6.036;2024-02-15T10:08:31;14.70;99.90
44763;DHT22;30483;49.576;6.036;2024-02-15T10:11:07;14.70;99.90
44763;DHT22;30483;49.576;6.036;2024-02-15T10:13:34;14.80;99.90
44763;DHT22;30483;49.576;6.036;2024-02-15T10:16:14;14.80;99.90
44763;DHT22;30483;49.576;6.036;2024-02-15T10:18:39;14.80;99.90
44763;DHT22;30483;49.576;6.036;2024-02-15T10:21:05;14.80;99.90
44763;DHT22;30483;49.576;6.036;2024-02-15T10:23:30;14.80;99.90
44763;DHT22;30483;49.576;6.036;2024-02-15T10:25:56;14.80;99.90
44763;DHT22;30483;49.576;6.036;2024-02-15T10:28:23;14.80;99.90
44763;DHT22;30483;49.576;6.036;2024-02-15T10:30:50;14.80;99.90
44763;DHT22;30483;49.576;6.036;2024-02-15T10:33:28;14.80;99.90
44763;DHT22;30483;49.576;6.036;2024-02-15T10:36:09;14.80;99.90
44763;DHT22;30483;49.576;6.036;2024-02-15T10:38:37;14.80;99.90
44763;DHT22;30483;49.576;6.036;2024-02-15T10:41:06;14.80;99.90
44763;DHT22;30483;49.576;6.036;2024-02-15T10:43:41;14.80;99.90
44763;DHT22;30483;49.576;6.036;2024-02-15T10:46:10;14.80;99.90
44763;DHT22;30483;49.576;6.036;2024-02-15T10:48:36;14.80;99.90
44763;DHT22;30483;49.576;6.036;2024-02-15T10:51:04;14.90;99.90
44763;DHT22;30483;49.576;6.036;2024-02-15T10:53:33;14.90;99.90
44763;DHT22;30483;49.576;6.036;2024-02-15T10:56:19;14.90;99.90
44763;DHT22;30483;49.576;6.036;2024-02-15T10:58:50;14.90;99.90
44763;DHT22;30483;49.576;6.036;2024-02-15T11:01:21;14.90;99.90
44763;DHT22;30483;49.576;6.036;2024-02-15T11:03:53;14.90;99.90
44763;DHT22;30483;49.576;6.036;2024-02-15T11:06:24;14.90;99.90
44763;DHT22;30483;49.576;6.036;2024-02-15T11:08:51;14.90;99.90
44763;DHT22;30483;49.576;6.036;2024-02-15T11:11:18;14.90;99.90
44763;DHT22;30483;49.576;6.036;2024-02-15T11:13:46;14.90;99.90
44763;DHT22;30483;49.576;6.036;2024-02-15T11:16:41;14.90;99.90
44763;DHT22;30483;49.576;6.036;2024-02-15T11:19:07;14.90;99.90
44763;DHT22;30483;49.576;6.036;2024-02-15T11:22:08;15.00;99.90
44763;DHT22;30483;49.576;6.036;2024-02-15T11:24:36;14.90;99.90
44763;DHT22;30483;49.576;6.036;2024-02-15T11:27:03;14.90;99.90
44763;DHT22;30483;49.576;6.036;2024-02-15T11:32:36;14.90;99.90
44763;DHT22;30483;49.576;6.036;2024-02-15T11:35:08;15.00;99.90
44763;DHT22;30483;49.576;6.036;2024-02-15T11:43:00;15.00;99.90
44763;DHT22;30483;49.576;6.036;2024-02-15T11:45:29;15.00;99.90
44763;DHT22;30483;49.576;6.036;2024-02-15T11:47:58;15.00;99.90
44763;DHT22;30483;49.576;6.036;2024-02-15T11:50:27;15.00;99.90
44763;DHT22;30483;49.576;6.036;2024-02-15T11:53:02;15.00;99.90
44763;DHT22;30483;49.576;6.036;2024-02-15T11:55:31;15.00;99.90
44763;DHT22;30483;49.576;6.036;2024-02-15T11:58:02;15.00;99.90
44763;DHT22;30483;49.576;6.036;2024-02-15T12:00:44;15.00;99.90
44763;DHT22;30483;49.576;6.036;2024-02-15T12:03:28;14.90;99.90
44763;DHT22;30483;49.576;6.036;2024-02-15T12:06:12;14.90;99.90
44763;DHT22;30483;49.576;6.036;2024-02-15T12:09:00;14.90;99.90
44763;DHT22;30483;49.576;6.036;2024-02-15T12:11:44;14.80;99.90
44763;DHT22;30483;49.576;6.036;2024-02-15T12:14:28;14.80;99.90
44763;DHT22;30483;49.576;6.036;2024-02-15T12:17:13;14.80;99.90
44763;DHT22;30483;49.576;6.036;2024-02-15T12:20:00;14.80;99.90
44763;DHT22;30483;49.576;6.036;2024-02-15T12:22:43;14.80;99.90
44763;DHT22;30483;49.576;6.036;2024-02-15T12:25:16;14.80;99.90
44763;DHT22;30483;49.576;6.036;2024-02-15T12:27:44;14.80;99.90
44763;DHT22;30483;49.576;6.036;2024-02-15T12:30:14;14.90;99.90
44763;DHT22;30483;49.576;6.036;2024-02-15T12:32:40;14.90;99.90
44763;DHT22;30483;49.576;6.036;2024-02-15T12:35:11;14.90;99.90
44763;DHT22;30483;49.576;6.036;2024-02-15T12:38:00;14.90;99.90
44763;DHT22;30483;49.576;6.036;2024-02-15T12:40:38;14.90;99.90
44763;DHT22;30483;49.576;6.036;2024-02-15T12:43:07;14.90;99.90
44763;DHT22;30483;49.576;6.036;2024-02-15T12:45:36;14.90;99.90
44763;DHT22;30483;49.576;6.036;2024-02-15T12:48:06;14.90;99.90
44763;DHT22;30483;49.576;6.036;2024-02-15T12:50:33;14.90;99.90
44763;DHT22;30483;49.576;6.036;2024-02-15T12:52:59;14.90;99.90
44763;DHT22;30483;49.576;6.036;2024-02-15T12:55:33;14.90;99.90
44763;DHT22;30483;49.576;6.036;2024-02-15T12:58:14;14.90;99.90
44763;DHT22;30483;49.576;6.036;2024-02-15T13:00:41;14.90;99.90
44763;DHT22;30483;49.576;6.036;2024-02-15T13:03:08;14.80;99.90
44763;DHT22;30483;49.576;6.036;2024-02-15T13:05:35;14.90;99.90
44763;DHT22;30483;49.576;6.036;2024-02-15T13:08:02;14.90;99.90
44763;DHT22;30483;49.576;6.036;2024-02-15T13:10:28;14.80;99.90
44763;DHT22;30483;49.576;6.036;2024-02-15T13:12:55;14.80;99.90
44763;DHT22;30483;49.576;6.036;2024-02-15T13:15:21;14.90;99.90
44763;DHT22;30483;49.576;6.036;2024-02-15T13:17:51;15.00;99.90
44763;DHT22;30483;49.576;6.036;2024-02-15T13:20:17;15.10;99.90
44763;DHT22;30483;49.576;6.036;2024-02-15T13:22:46;15.20;99.90
44763;DHT22;30483;49.576;6.036;2024-02-15T13:25:15;15.10;99.90
44763;DHT22;30483;49.576;6.036;2024-02-15T13:27:46;14.90;99.90
44763;DHT22;30483;49.576;6.036;2024-02-15T13:30:12;14.80;99.90
44763;DHT22;30483;49.576;6.036;2024-02-15T13:32:41;14.90;99.90
44763;DHT22;30483;49.576;6.036;2024-02-15T13:35:10;14.90;99.90
44763;DHT22;30483;49.576;6.036;2024-02-15T13:37:42;14.90;99.90
44763;DHT22;30483;49.576;6.036;2024-02-15T13:40:11;14.90;99.90
44763;DHT22;30483;49.576;6.036;2024-02-15T13:42:42;14.80;99.90
44763;DHT22;30483;49.576;6.036;2024-02-15T13:45:12;14.80;99.90
44763;DHT22;30483;49.576;6.036;2024-02-15T13:47:39;14.80;99.90
44763;DHT22;30483;49.576;6.036;2024-02-15T13:50:05;14.80;99.90
44763;DHT22;30483;49.576;6.036;2024-02-15T13:52:30;14.80;99.90
44763;DHT22;30483;49.576;6.036;2024-02-15T13:54:56;14.80;99.90
44763;DHT22;30483;49.576;6.036;2024-02-15T13:57:22;14.80;99.90
44763;DHT22;30483;49.576;6.036;2024-02-15T13:59:48;14.80;99.90
44763;DHT22;30483;49.576;6.036;2024-02-15T14:02:14;14.70;99.90
44763;DHT22;30483;49.576;6.036;2024-02-15T14:04:40;14.80;99.90
44763;DHT22;30483;49.576;6.036;2024-02-15T14:07:05;14.70;99.90
44763;DHT22;30483;49.576;6.036;2024-02-15T14:09:31;14.70;99.90
44763;DHT22;30483;49.576;6.036;2024-02-15T14:11:56;14.70;99.90
44763;DHT22;30483;49.576;6.036;2024-02-15T14:14:23;14.70;99.90
44763;DHT22;30483;49.576;6.036;2024-02-15T14:16:49;14.70;99.90
44763;DHT22;30483;49.576;6.036;2024-02-15T14:19:14;14.70;99.90
44763;DHT22;30483;49.576;6.036;2024-02-15T14:21:40;14.70;99.90
44763;DHT22;30483;49.576;6.036;2024-02-15T14:24:08;14.70;99.90
44763;DHT22;30483;49.576;6.036;2024-02-15T14:26:34;14.70;99.90
44763;DHT22;30483;49.576;6.036;2024-02-15T14:29:00;14.70;99.90
44763;DHT22;30483;49.576;6.036;2024-02-15T14:31:28;14.70;99.90
44763;DHT22;30483;49.576;6.036;2024-02-15T14:34:12;14.80;99.90
44763;DHT22;30483;49.576;6.036;2024-02-15T14:36:38;14.70;99.90
44763;DHT22;30483;49.576;6.036;2024-02-15T14:39:03;14.70;99.90
44763;DHT22;30483;49.576;6.036;2024-02-15T14:41:30;14.70;99.90
44763;DHT22;30483;49.576;6.036;2024-02-15T14:43:56;14.70;99.90
44763;DHT22;30483;49.576;6.036;2024-02-15T14:46:22;14.70;99.90
44763;DHT22;30483;49.576;6.036;2024-02-15T14:48:48;14.70;99.90
44763;DHT22;30483;49.576;6.036;2024-02-15T14:51:16;14.70;99.90
44763;DHT22;30483;49.576;6.036;2024-02-15T14:53:44;14.70;99.90
44763;DHT22;30483;49.576;6.036;2024-02-15T14:56:10;14.70;99.90
44763;DHT22;30483;49.576;6.036;2024-02-15T14:58:35;14.70;99.90
44763;DHT22;30483;49.576;6.036;2024-02-15T15:01:01;14.70;99.90
44763;DHT22;30483;49.576;6.036;2024-02-15T15:03:30;14.60;99.90
44763;DHT22;30483;49.576;6.036;2024-02-15T15:06:03;14.70;99.90
44763;DHT22;30483;49.576;6.036;2024-02-15T15:08:47;14.70;99.90
44763;DHT22;30483;49.576;6.036;2024-02-15T15:11:31;14.70;99.90
44763;DHT22;30483;49.576;6.036;2024-02-15T15:14:15;14.70;99.90
44763;DHT22;30483;49.576;6.036;2024-02-15T15:16:42;14.80;99.90
44763;DHT22;30483;49.576;6.036;2024-02-15T15:19:08;14.80;99.90
44763;DHT22;30483;49.576;6.036;2024-02-15T15:21:34;14.80;99.90
44763;DHT22;30483;49.576;6.036;2024-02-15T15:23:59;14.70;99.90
44763;DHT22;30483;49.576;6.036;2024-02-15T15:26:25;14.80;99.90
44763;DHT22;30483;49.576;6.036;2024-02-15T15:28:52;14.70;99.90
44763;DHT22;30483;49.576;6.036;2024-02-15T15:31:19;14.70;99.90
44763;DHT22;30483;49.576;6.036;2024-02-15T15:33:45;14.70;99.90
44763;DHT22;30483;49.576;6.036;2024-02-15T15:36:11;14.70;99.90
44763;DHT22;30483;49.576;6.036;2024-02-15T15:38:37;14.80;99.90
44763;DHT22;30483;49.576;6.036;2024-02-15T15:41:02;14.80;99.90
44763;DHT22;30483;49.576;6.036;2024-02-15T15:43:29;14.80;99.90
44763;DHT22;30483;49.576;6.036;2024-02-15T15:45:55;14.80;99.90
44763;DHT22;30483;49.576;6.036;2024-02-15T15:48:22;14.80;99.90
44763;DHT22;30483;49.576;6.036;2024-02-15T15:50:48;14.80;99.90
44763;DHT22;30483;49.576;6.036;2024-02-15T15:53:14;14.80;99.90
44763;DHT22;30483;49.576;6.036;2024-02-15T15:55:40;14.80;99.90
44763;DHT22;30483;49.576;6.036;2024-02-15T15:58:05;14.80;99.90
44763;DHT22;30483;49.576;6.036;2024-02-15T16:00:35;14.90;99.90
44763;DHT22;30483;49.576;6.036;2024-02-15T16:03:01;14.90;99.90
44763;DHT22;30483;49.576;6.036;2024-02-15T16:05:30;14.90;99.90
44763;DHT22;30483;49.576;6.036;2024-02-15T16:07:55;14.90;99.90
44763;DHT22;30483;49.576;6.036;2024-02-15T16:10:21;14.90;99.90
44763;DHT22;30483;49.576;6.036;2024-02-15T16:12:51;14.90;99.90
44763;DHT22;30483;49.576;6.036;2024-02-15T16:15:18;14.90;99.90
44763;DHT22;30483;49.576;6.036;2024-02-15T16:17:44;14.90;99.90
44763;DHT22;30483;49.576;6.036;2024-02-15T16:20:11;14.90;99.90
44763;DHT22;30483;49.576;6.036;2024-02-15T16:22:40;14.90;99.90
44763;DHT22;30483;49.576;6.036;2024-02-15T16:25:07;14.90;99.90
44763;DHT22;30483;49.576;6.036;2024-02-15T16:27:38;14.80;99.90
44763;DHT22;30483;49.576;6.036;2024-02-15T16:30:08;14.80;99.90
44763;DHT22;30483;49.576;6.036;2024-02-15T16:32:34;14.80;99.90
44763;DHT22;30483;49.576;6.036;2024-02-15T16:35:04;14.90;99.90
44763;DHT22;30483;49.576;6.036;2024-02-15T16:37:39;14.90;99.90
44763;DHT22;30483;49.576;6.036;2024-02-15T16:42:34;14.90;99.90
44763;DHT22;30483;49.576;6.036;2024-02-15T16:45:00;14.90;99.90
44763;DHT22;30483;49.576;6.036;2024-02-15T16:47:26;14.90;99.90
44763;DHT22;30483;49.576;6.036;2024-02-15T16:49:51;15.00;99.90
44763;DHT22;30483;49.576;6.036;2024-02-15T16:52:17;15.00;99.90
44763;DHT22;30483;49.576;6.036;2024-02-15T16:54:46;15.10;99.90
44763;DHT22;30483;49.576;6.036;2024-02-15T16:57:12;15.20;99.90
44763;DHT22;30483;49.576;6.036;2024-02-15T16:59:38;15.30;99.90
44763;DHT22;30483;49.576;6.036;2024-02-15T17:02:03;15.40;99.90
44763;DHT22;30483;49.576;6.036;2024-02-15T17:04:29;15.50;99.90
44763;DHT22;30483;49.576;6.036;2024-02-15T17:06:55;15.50;99.90
44763;DHT22;30483;49.576;6.036;2024-02-15T17:09:20;15.60;99.90
44763;DHT22;30483;49.576;6.036;2024-02-15T17:11:46;15.70;99.90
44763;DHT22;30483;49.576;6.036;2024-02-15T17:14:14;15.70;99.90
44763;DHT22;30483;49.576;6.036;2024-02-15T17:16:40;15.80;99.90
44763;DHT22;30483;49.576;6.036;2024-02-15T17:19:08;15.80;99.90
44763;DHT22;30483;49.576;6.036;2024-02-15T17:21:33;15.80;99.90
44763;DHT22;30483;49.576;6.036;2024-02-15T17:24:00;15.80;99.90
44763;DHT22;30483;49.576;6.036;2024-02-15T17:26:26;15.90;99.90
44763;DHT22;30483;49.576;6.036;2024-02-15T17:28:52;15.90;99.90
44763;DHT22;30483;49.576;6.036;2024-02-15T17:31:22;15.90;99.90
44763;DHT22;30483;49.576;6.036;2024-02-15T17:33:48;15.90;99.90
44763;DHT22;30483;49.576;6.036;2024-02-15T17:36:13;15.90;99.90
44763;DHT22;30483;49.576;6.036;2024-02-15T17:38:39;15.90;99.90
44763;DHT22;30483;49.576;6.036;2024-02-15T17:41:05;15.90;99.90
44763;DHT22;30483;49.576;6.036;2024-02-15T17:43:31;15.90;99.90
44763;DHT22;30483;49.576;6.036;2024-02-15T17:45:58;15.90;99.90
44763;DHT22;30483;49.576;6.036;2024-02-15T17:48:24;15.90;99.90
44763;DHT22;30483;49.576;6.036;2024-02-15T17:50:52;15.90;99.90
44763;DHT22;30483;49.576;6.036;2024-02-15T17:53:18;15.90;99.90
44763;DHT22;30483;49.576;6.036;2024-02-15T17:55:44;15.90;99.90
44763;DHT22;30483;49.576;6.036;2024-02-15T17:58:13;15.90;99.90
44763;DHT22;30483;49.576;6.036;2024-02-15T18:00:38;16.00;99.90
44763;DHT22;30483;49.576;6.036;2024-02-15T18:03:06;15.90;99.90
44763;DHT22;30483;49.576;6.036;2024-02-15T18:05:36;15.90;99.90
44763;DHT22;30483;49.576;6.036;2024-02-15T18:08:02;15.90;99.90
44763;DHT22;30483;49.576;6.036;2024-02-15T18:10:28;15.90;99.90
44763;DHT22;30483;49.576;6.036;2024-02-15T18:12:53;15.90;99.90
44763;DHT22;30483;49.576;6.036;2024-02-15T18:15:19;15.90;99.90
44763;DHT22;30483;49.576;6.036;2024-02-15T18:17:54;15.90;99.90
44763;DHT22;30483;49.576;6.036;2024-02-15T18:20:21;15.90;99.90
44763;DHT22;30483;49.576;6.036;2024-02-15T18:22:51;15.90;99.90
44763;DHT22;30483;49.576;6.036;2024-02-15T18:25:19;15.90;99.90
44763;DHT22;30483;49.576;6.036;2024-02-15T18:30:13;15.90;99.90
44763;DHT22;30483;49.576;6.036;2024-02-15T18:32:43;15.90;99.90
44763;DHT22;30483;49.576;6.036;2024-02-15T18:35:09;15.90;99.90
44763;DHT22;30483;49.576;6.036;2024-02-15T18:37:40;15.80;99.90
44763;DHT22;30483;49.576;6.036;2024-02-15T18:40:10;15.80;99.90
44763;DHT22;30483;49.576;6.036;2024-02-15T18:42:37;15.80;99.90
44763;DHT22;30483;49.576;6.036;2024-02-15T18:45:04;15.80;99.90
44763;DHT22;30483;49.576;6.036;2024-02-15T18:47:30;15.80;99.90
44763;DHT22;30483;49.576;6.036;2024-02-15T18:49:56;15.80;99.90
44763;DHT22;30483;49.576;6.036;2024-02-15T18:52:22;15.80;99.90
44763;DHT22;30483;49.576;6.036;2024-02-15T18:54:48;15.80;99.90
44763;DHT22;30483;49.576;6.036;2024-02-15T18:57:16;15.80;99.90
44763;DHT22;30483;49.576;6.036;2024-02-15T18:59:42;15.80;99.90
44763;DHT22;30483;49.576;6.036;2024-02-15T19:02:09;15.80;99.90
44763;DHT22;30483;49.576;6.036;2024-02-15T19:04:36;15.80;99.90
44763;DHT22;30483;49.576;6.036;2024-02-15T19:07:04;15.80;99.90
44763;DHT22;30483;49.576;6.036;2024-02-15T19:22:11;15.80;99.90
44763;DHT22;30483;49.576;6.036;2024-02-15T19:24:37;15.80;99.90
44763;DHT22;30483;49.576;6.036;2024-02-15T19:27:03;15.80;99.90
44763;DHT22;30483;49.576;6.036;2024-02-15T19:29:29;15.80;99.90
44763;DHT22;30483;49.576;6.036;2024-02-15T19:31:55;15.70;99.90
44763;DHT22;30483;49.576;6.036;2024-02-15T19:34:20;15.80;99.90
44763;DHT22;30483;49.576;6.036;2024-02-15T19:36:49;15.80;99.90
44763;DHT22;30483;49.576;6.036;2024-02-15T19:39:15;15.80;99.90
44763;DHT22;30483;49.576;6.036;2024-02-15T19:41:42;15.80;99.90
44763;DHT22;30483;49.576;6.036;2024-02-15T19:44:09;15.80;99.90
44763;DHT22;30483;49.576;6.036;2024-02-15T19:46:37;15.80;99.90
44763;DHT22;30483;49.576;6.036;2024-02-15T19:49:07;15.80;99.90
44763;DHT22;30483;49.576;6.036;2024-02-15T19:51:36;15.80;99.90
44763;DHT22;30483;49.576;6.036;2024-02-15T19:54:03;15.70;99.90
44763;DHT22;30483;49.576;6.036;2024-02-15T19:56:30;15.70;99.90
44763;DHT22;30483;49.576;6.036;2024-02-15T19:59:05;15.70;99.90
44763;DHT22;30483;49.576;6.036;2024-02-15T20:01:37;15.70;99.90
44763;DHT22;30483;49.576;6.036;2024-02-15T20:04:02;15.70;99.90
44763;DHT22;30483;49.576;6.036;2024-02-15T20:06:28;15.70;99.90
44763;DHT22;30483;49.576;6.036;2024-02-15T20:08:54;15.70;99.90
44763;DHT22;30483;49.576;6.036;2024-02-15T20:11:25;15.70;99.90
44763;DHT22;30483;49.576;6.036;2024-02-15T20:13:51;15.70;99.90
44763;DHT22;30483;49.576;6.036;2024-02-15T20:16:18;15.70;99.90
44763;DHT22;30483;49.576;6.036;2024-02-15T20:18:50;15.70;99.90
44763;DHT22;30483;49.576;6.036;2024-02-15T20:21:17;15.70;99.90
44763;DHT22;30483;49.576;6.036;2024-02-15T20:23:43;15.70;99.90
44763;DHT22;30483;49.576;6.036;2024-02-15T20:26:09;15.70;99.90
44763;DHT22;30483;49.576;6.036;2024-02-15T20:28:35;15.70;99.90
44763;DHT22;30483;49.576;6.036;2024-02-15T20:31:01;15.70;99.90
44763;DHT22;30483;49.576;6.036;2024-02-15T20:33:27;15.70;99.90